sensor_id;sensor_type;location;lat;lon;timestamp;pressure;altitude;pressure_sealevel;temperature;humidity
11648;BME280;5880;52.342;9.662;2023-02-10T00:01:28;102737.41;;;7.58;48.03
11648;BME280;5880;52.342;9.662;2023-02-10T00:03:54;102745.28;;;7.61;47.71
11648;BME280;5880;52.342;9.662;2023-02-10T00:06:24;102746.44;;;7.58;47.75
11648;BME280;5880;52.342;9.662;2023-02-10T00:08:55;102746.63;;;7.57;47.59
11648;BME280;5880;52.342;9.662;2023-02-10T00:11:22;102751.34;;;7.55;47.90
11648;BME280;5880;52.342;9.662;2023-02-10T00:14:08;102751.16;;;7.48;47.65
11648;BME280;5880;52.342;9.662;2023-02-10T00:16:34;102758.81;;;7.53;47.46
11648;BME280;5880;52.342;9.662;2023-02-10T00:19:00;102761.53;;;7.53;47.63
11648;BME280;5880;52.342;9.662;2023-02-10T00:21:26;102760.69;;;7.52;47.94
11648;BME280;5880;52.342;9.662;2023-02-10T00:23:51;102762.56;;;7.52;48.17
11648;BME280;5880;52.342;9.662;2023-02-10T00:26:18;102757.97;;;7.52;47.79
11648;BME280;5880;52.342;9.662;2023-02-10T00:28:44;102761.69;;;7.51;47.88
11648;BME280;5880;52.342;9.662;2023-02-10T00:31:15;102765.31;;;7.52;48.23
11648;BME280;5880;52.342;9.662;2023-02-10T00:33:44;102769.03;;;7.51;47.94
11648;BME280;5880;52.342;9.662;2023-02-10T00:36:13;102771.59;;;7.52;47.72
11648;BME280;5880;52.342;9.662;2023-02-10T00:38:40;102773.63;;;7.50;47.94
11648;BME280;5880;52.342;9.662;2023-02-10T00:41:09;102777.03;;;7.52;48.05
11648;BME280;5880;52.342;9.662;2023-02-10T00:43:36;102773.63;;;7.50;47.93
11648;BME280;5880;52.342;9.662;2023-02-10T00:46:03;102773.13;;;7.55;48.19
11648;BME280;5880;52.342;9.662;2023-02-10T00:48:28;102775.84;;;7.55;48.44
11648;BME280;5880;52.342;9.662;2023-02-10T00:50:54;102781.16;;;7.56;48.21
11648;BME280;5880;52.342;9.662;2023-02-10T00:53:20;102775.72;;;7.56;48.26
11648;BME280;5880;52.342;9.662;2023-02-10T00:55:46;102786.41;;;7.58;48.12
11648;BME280;5880;52.342;9.662;2023-02-10T00:58:12;102783.69;;;7.58;47.97
11648;BME280;5880;52.342;9.662;2023-02-10T01:00:37;102785.22;;;7.60;48.10
11648;BME280;5880;52.342;9.662;2023-02-10T01:03:03;102783.41;;;7.61;48.17
11648;BME280;5880;52.342;9.662;2023-02-10T01:05:29;102785.22;;;7.60;47.95
11648;BME280;5880;52.342;9.662;2023-02-10T01:07:54;102789.69;;;7.61;48.26
11648;BME280;5880;52.342;9.662;2023-02-10T01:10:21;102791.38;;;7.63;48.52
11648;BME280;5880;52.342;9.662;2023-02-10T01:12:47;102788.66;;;7.63;48.11
11648;BME280;5880;52.342;9.662;2023-02-10T01:15:13;102788.66;;;7.63;48.46
11648;BME280;5880;52.342;9.662;2023-02-10T01:17:39;102788.66;;;7.63;48.19
11648;BME280;5880;52.342;9.662;2023-02-10T01:20:05;102796.81;;;7.63;48.18
11648;BME280;5880;52.342;9.662;2023-02-10T01:22:35;102791.38;;;7.63;48.33
11648;BME280;5880;52.342;9.662;2023-02-10T01:25:02;102793.25;;;7.62;48.66
11648;BME280;5880;52.342;9.662;2023-02-10T01:27:28;102799.72;;;7.61;48.60
11648;BME280;5880;52.342;9.662;2023-02-10T01:29:54;102797.84;;;7.61;48.81
11648;BME280;5880;52.342;9.662;2023-02-10T01:32:20;102786.97;;;7.61;48.87
11648;BME280;5880;52.342;9.662;2023-02-10T01:34:45;102789.50;;;7.63;48.80
11648;BME280;5880;52.342;9.662;2023-02-10T01:37:11;102793.09;;;7.64;48.53
11648;BME280;5880;52.342;9.662;2023-02-10T01:39:37;102785.09;;;7.62;48.52
11648;BME280;5880;52.342;9.662;2023-02-10T01:42:03;102786.78;;;7.63;48.57
11648;BME280;5880;52.342;9.662;2023-02-10T01:46:55;102785.94;;;7.63;48.26
11648;BME280;5880;52.342;9.662;2023-02-10T01:49:30;102766.50;;;7.57;48.83
11648;BME280;5880;52.342;9.662;2023-02-10T01:52:06;102774.34;;;7.60;48.54
11648;BME280;5880;52.342;9.662;2023-02-10T01:54:40;102776.22;;;7.60;48.10
11648;BME280;5880;52.342;9.662;2023-02-10T01:57:07;102782.16;;;7.55;48.49
11648;BME280;5880;52.342;9.662;2023-02-10T01:59:37;102768.88;;;7.52;48.45
11648;BME280;5880;52.342;9.662;2023-02-10T02:02:05;102765.59;;;7.49;48.18
11648;BME280;5880;52.342;9.662;2023-02-10T02:04:48;102777.84;;;7.45;48.49
11648;BME280;5880;52.342;9.662;2023-02-10T02:07:15;102771.16;;;7.39;48.53
11648;BME280;5880;52.342;9.662;2023-02-10T02:09:42;102773.34;;;7.35;47.96
11648;BME280;5880;52.342;9.662;2023-02-10T02:18:14;102784.81;;;7.21;48.40
11648;BME280;5880;52.342;9.662;2023-02-10T02:21:32;102775.25;;;7.17;48.42
11648;BME280;5880;52.342;9.662;2023-02-10T02:24:36;102775.38;;;7.15;48.63
11648;BME280;5880;52.342;9.662;2023-02-10T02:27:43;102773.69;;;7.14;49.20
11648;BME280;5880;52.342;9.662;2023-02-10T02:30:29;102776.41;;;7.14;49.04
11648;BME280;5880;52.342;9.662;2023-02-10T02:33:18;102764.66;;;7.14;48.98
11648;BME280;5880;52.342;9.662;2023-02-10T02:35:56;102775.75;;;7.21;49.27
11648;BME280;5880;52.342;9.662;2023-02-10T02:38:23;102776.47;;;7.23;48.97
11648;BME280;5880;52.342;9.662;2023-02-10T02:40:49;102787.91;;;7.26;49.12
11648;BME280;5880;52.342;9.662;2023-02-10T02:43:15;102783.31;;;7.27;49.13
11648;BME280;5880;52.342;9.662;2023-02-10T02:45:59;102776.69;;;7.29;48.86
11648;BME280;5880;52.342;9.662;2023-02-10T02:49:03;102781.97;;;7.31;48.79
11648;BME280;5880;52.342;9.662;2023-02-10T02:51:42;102785.41;;;7.33;48.67
11648;BME280;5880;52.342;9.662;2023-02-10T02:54:24;102787.94;;;7.34;49.54
11648;BME280;5880;52.342;9.662;2023-02-10T02:57:06;102784.22;;;7.35;49.26
11648;BME280;5880;52.342;9.662;2023-02-10T02:59:47;102772.78;;;7.32;49.21
11648;BME280;5880;52.342;9.662;2023-02-10T03:02:18;102780.47;;;7.36;48.97
11648;BME280;5880;52.342;9.662;2023-02-10T03:04:45;102780.47;;;7.36;49.22
11648;BME280;5880;52.342;9.662;2023-02-10T03:07:11;102774.06;;;7.37;49.21
11648;BME280;5880;52.342;9.662;2023-02-10T03:09:37;102780.34;;;7.38;49.04
11648;BME280;5880;52.342;9.662;2023-02-10T03:12:04;102775.75;;;7.38;49.17
11648;BME280;5880;52.342;9.662;2023-02-10T03:14:30;102776.59;;;7.39;49.14
11648;BME280;5880;52.342;9.662;2023-02-10T03:16:55;102782.03;;;7.39;49.22
11648;BME280;5880;52.342;9.662;2023-02-10T03:19:21;102783.75;;;7.40;49.34
11648;BME280;5880;52.342;9.662;2023-02-10T03:21:47;102779.16;;;7.40;49.59
11648;BME280;5880;52.342;9.662;2023-02-10T03:24:13;102783.44;;;7.43;48.96
11648;BME280;5880;52.342;9.662;2023-02-10T03:26:39;102779.69;;;7.44;49.03
11648;BME280;5880;52.342;9.662;2023-02-10T03:29:06;102774.94;;;7.46;49.07
11648;BME280;5880;52.342;9.662;2023-02-10T03:31:32;102782.94;;;7.48;49.16
11648;BME280;5880;52.342;9.662;2023-02-10T03:33:58;102782.81;;;7.49;49.46
11648;BME280;5880;52.342;9.662;2023-02-10T03:36:23;102785.34;;;7.51;49.09
11648;BME280;5880;52.342;9.662;2023-02-10T03:38:49;102793.38;;;7.52;49.34
11648;BME280;5880;52.342;9.662;2023-02-10T03:41:15;102784.16;;;7.53;49.53
11648;BME280;5880;52.342;9.662;2023-02-10T03:43:40;102791.34;;;7.54;49.52
11648;BME280;5880;52.342;9.662;2023-02-10T03:46:10;102798.31;;;7.57;49.48
11648;BME280;5880;52.342;9.662;2023-02-10T03:48:35;102780.59;;;7.53;49.50
11648;BME280;5880;52.342;9.662;2023-02-10T03:51:05;102788.13;;;7.59;49.20
11648;BME280;5880;52.342;9.662;2023-02-10T03:53:32;102781.66;;;7.60;49.56
11648;BME280;5880;52.342;9.662;2023-02-10T03:55:58;102795.13;;;7.61;49.51
11648;BME280;5880;52.342;9.662;2023-02-10T03:58:24;102781.53;;;7.61;49.55
11648;BME280;5880;52.342;9.662;2023-02-10T04:00:50;102797.53;;;7.65;49.55
11648;BME280;5880;52.342;9.662;2023-02-10T04:03:16;102788.50;;;7.64;49.26
11648;BME280;5880;52.342;9.662;2023-02-10T04:05:42;102790.38;;;7.64;49.66
11648;BME280;5880;52.342;9.662;2023-02-10T04:08:08;102788.50;;;7.64;49.79
11648;BME280;5880;52.342;9.662;2023-02-10T04:10:34;102783.22;;;7.63;49.89
11648;BME280;5880;52.342;9.662;2023-02-10T04:12:59;102784.25;;;7.61;49.86
11648;BME280;5880;52.342;9.662;2023-02-10T04:15:25;102785.22;;;7.60;49.60
11648;BME280;5880;52.342;9.662;2023-02-10T04:17:51;102787.09;;;7.60;49.44
11648;BME280;5880;52.342;9.662;2023-02-10T04:20:17;102778.09;;;7.59;49.56
11648;BME280;5880;52.342;9.662;2023-02-10T04:22:43;102776.22;;;7.60;49.95
11648;BME280;5880;52.342;9.662;2023-02-10T04:25:09;102779.78;;;7.60;49.85
11648;BME280;5880;52.342;9.662;2023-02-10T04:27:35;102788.84;;;7.61;49.65
11648;BME280;5880;52.342;9.662;2023-02-10T04:30:00;102785.94;;;7.63;50.01
11648;BME280;5880;52.342;9.662;2023-02-10T04:32:26;102776.38;;;7.58;49.56
11648;BME280;5880;52.342;9.662;2023-02-10T04:34:52;102781.53;;;7.61;49.68
11648;BME280;5880;52.342;9.662;2023-02-10T04:37:18;102781.34;;;7.63;49.69
11648;BME280;5880;52.342;9.662;2023-02-10T04:39:43;102775.88;;;7.63;49.66
11648;BME280;5880;52.342;9.662;2023-02-10T04:42:09;102790.38;;;7.64;49.70
11648;BME280;5880;52.342;9.662;2023-02-10T04:44:36;102785.09;;;7.62;49.94
11648;BME280;5880;52.342;9.662;2023-02-10T04:47:01;102794.28;;;7.61;49.63
11648;BME280;5880;52.342;9.662;2023-02-10T04:49:28;102779.63;;;7.62;49.93
11648;BME280;5880;52.342;9.662;2023-02-10T04:51:54;102781.53;;;7.61;50.21
11648;BME280;5880;52.342;9.662;2023-02-10T04:54:20;102782.38;;;7.62;49.67
11648;BME280;5880;52.342;9.662;2023-02-10T04:56:46;102788.84;;;7.61;49.98
11648;BME280;5880;52.342;9.662;2023-02-10T04:59:12;102784.25;;;7.61;49.71
11648;BME280;5880;52.342;9.662;2023-02-10T05:01:38;102779.78;;;7.60;49.61
11648;BME280;5880;52.342;9.662;2023-02-10T05:04:04;102784.06;;;7.63;49.72
11648;BME280;5880;52.342;9.662;2023-02-10T05:06:30;102786.78;;;7.63;49.71
11648;BME280;5880;52.342;9.662;2023-02-10T05:08:56;102785.94;;;7.63;50.17
11648;BME280;5880;52.342;9.662;2023-02-10T05:11:22;102789.50;;;7.63;49.89
11648;BME280;5880;52.342;9.662;2023-02-10T05:13:47;102798.53;;;7.64;50.33
11648;BME280;5880;52.342;9.662;2023-02-10T05:16:14;102791.22;;;7.64;49.93
11648;BME280;5880;52.342;9.662;2023-02-10T05:18:40;102799.41;;;7.64;50.22
11648;BME280;5880;52.342;9.662;2023-02-10T05:21:08;102793.09;;;7.64;49.87
11648;BME280;5880;52.342;9.662;2023-02-10T05:23:34;102798.53;;;7.64;49.96
11648;BME280;5880;52.342;9.662;2023-02-10T05:26:00;102794.09;;;7.63;50.39
11648;BME280;5880;52.342;9.662;2023-02-10T05:28:26;102798.69;;;7.62;50.18
11648;BME280;5880;52.342;9.662;2023-02-10T05:30:53;102804.13;;;7.62;49.80
11648;BME280;5880;52.342;9.662;2023-02-10T05:33:19;102797.84;;;7.61;50.12
11648;BME280;5880;52.342;9.662;2023-02-10T05:35:44;102797.84;;;7.61;50.05
11648;BME280;5880;52.342;9.662;2023-02-10T05:38:10;102787.44;;;7.57;50.06
11648;BME280;5880;52.342;9.662;2023-02-10T05:40:36;102806.00;;;7.61;50.07
11648;BME280;5880;52.342;9.662;2023-02-10T05:43:03;102799.31;;;7.56;50.23
11648;BME280;5880;52.342;9.662;2023-02-10T05:45:29;102810.75;;;7.59;50.05
11648;BME280;5880;52.342;9.662;2023-02-10T05:47:54;102800.19;;;7.56;49.83
11648;BME280;5880;52.342;9.662;2023-02-10T05:50:20;102803.41;;;7.52;49.94
11648;BME280;5880;52.342;9.662;2023-02-10T05:52:46;102809.53;;;7.54;49.81
11648;BME280;5880;52.342;9.662;2023-02-10T05:55:12;102806.97;;;7.52;49.80
11648;BME280;5880;52.342;9.662;2023-02-10T05:57:38;102809.00;;;7.50;49.88
11648;BME280;5880;52.342;9.662;2023-02-10T06:00:06;102813.59;;;7.50;49.46
11648;BME280;5880;52.342;9.662;2023-02-10T06:02:32;102815.75;;;7.46;49.58
11648;BME280;5880;52.342;9.662;2023-02-10T06:04:57;102819.66;;;7.44;49.94
11648;BME280;5880;52.342;9.662;2023-02-10T06:07:23;102815.53;;;7.39;49.87
11648;BME280;5880;52.342;9.662;2023-02-10T06:09:49;102818.56;;;7.36;49.48
11648;BME280;5880;52.342;9.662;2023-02-10T06:12:14;102829.09;;;7.31;49.84
11648;BME280;5880;52.342;9.662;2023-02-10T06:14:40;102825.66;;;7.29;49.81
11648;BME280;5880;52.342;9.662;2023-02-10T06:17:07;102829.56;;;7.27;49.58
11648;BME280;5880;52.342;9.662;2023-02-10T06:19:37;102832.59;;;7.24;49.62
11648;BME280;5880;52.342;9.662;2023-02-10T06:22:04;102826.06;;;7.16;49.72
11648;BME280;5880;52.342;9.662;2023-02-10T06:24:30;102836.06;;;7.16;49.71
11648;BME280;5880;52.342;9.662;2023-02-10T06:26:56;102830.41;;;7.09;49.52
11648;BME280;5880;52.342;9.662;2023-02-10T06:29:21;102844.00;;;7.09;49.45
11648;BME280;5880;52.342;9.662;2023-02-10T06:31:47;102832.03;;;7.02;49.81
11648;BME280;5880;52.342;9.662;2023-02-10T06:34:13;102848.22;;;7.04;49.98
11648;BME280;5880;52.342;9.662;2023-02-10T06:36:38;102850.22;;;7.02;49.35
11648;BME280;5880;52.342;9.662;2023-02-10T06:39:04;102858.56;;;7.00;50.22
11648;BME280;5880;52.342;9.662;2023-02-10T06:41:31;102858.84;;;6.97;49.56
11648;BME280;5880;52.342;9.662;2023-02-10T06:43:57;102869.00;;;6.95;49.50
11648;BME280;5880;52.342;9.662;2023-02-10T06:46:23;102872.03;;;6.92;49.86
11648;BME280;5880;52.342;9.662;2023-02-10T06:48:49;102868.63;;;6.90;49.84
11648;BME280;5880;52.342;9.662;2023-02-10T06:51:15;102877.09;;;6.87;49.68
11648;BME280;5880;52.342;9.662;2023-02-10T06:53:41;102887.25;;;6.85;49.92
11648;BME280;5880;52.342;9.662;2023-02-10T06:56:08;102879.97;;;6.85;50.18
11648;BME280;5880;52.342;9.662;2023-02-10T06:58:34;102878.25;;;6.84;49.65
11648;BME280;5880;52.342;9.662;2023-02-10T07:00:59;102881.97;;;6.83;50.18
11648;BME280;5880;52.342;9.662;2023-02-10T07:03:27;102886.56;;;6.83;49.93
11648;BME280;5880;52.342;9.662;2023-02-10T07:05:53;102865.97;;;6.80;50.21
11648;BME280;5880;52.342;9.662;2023-02-10T07:08:18;102870.94;;;6.85;50.33
11648;BME280;5880;52.342;9.662;2023-02-10T07:10:44;102877.94;;;6.87;50.25
11648;BME280;5880;52.342;9.662;2023-02-10T07:13:10;102878.66;;;6.89;50.08
11648;BME280;5880;52.342;9.662;2023-02-10T07:15:36;102882.06;;;6.91;50.28
11648;BME280;5880;52.342;9.662;2023-02-10T07:18:01;102880.75;;;6.95;50.68
11648;BME280;5880;52.342;9.662;2023-02-10T07:20:27;102872.91;;;6.92;50.65
11648;BME280;5880;52.342;9.662;2023-02-10T07:22:53;102873.28;;;6.97;50.52
11648;BME280;5880;52.342;9.662;2023-02-10T07:25:19;102875.41;;;7.04;50.89
11648;BME280;5880;52.342;9.662;2023-02-10T07:27:45;102870.09;;;7.02;51.16
11648;BME280;5880;52.342;9.662;2023-02-10T07:30:12;102882.94;;;7.10;50.67
11648;BME280;5880;52.342;9.662;2023-02-10T07:32:37;102874.63;;;7.11;50.82
11648;BME280;5880;52.342;9.662;2023-02-10T07:35:04;102877.06;;;7.14;51.07
11648;BME280;5880;52.342;9.662;2023-02-10T07:37:29;102883.19;;;7.16;50.96
11648;BME280;5880;52.342;9.662;2023-02-10T07:39:57;102874.00;;;7.17;50.94
11648;BME280;5880;52.342;9.662;2023-02-10T07:42:23;102877.28;;;7.21;51.19
11648;BME280;5880;52.342;9.662;2023-02-10T07:44:48;102883.41;;;7.23;50.90
11648;BME280;5880;52.342;9.662;2023-02-10T07:47:14;102882.22;;;7.26;51.19
11648;BME280;5880;52.342;9.662;2023-02-10T07:49:39;102877.69;;;7.26;51.15
11648;BME280;5880;52.342;9.662;2023-02-10T07:52:05;102882.66;;;7.31;51.07
11648;BME280;5880;52.342;9.662;2023-02-10T07:54:31;102885.19;;;7.32;51.35
11648;BME280;5880;52.342;9.662;2023-02-10T07:56:57;102894.91;;;7.35;51.48
11648;BME280;5880;52.342;9.662;2023-02-10T07:59:22;102898.34;;;7.37;51.23
11648;BME280;5880;52.342;9.662;2023-02-10T08:01:49;102893.59;;;7.39;51.36
11648;BME280;5880;52.342;9.662;2023-02-10T08:04:14;102900.59;;;7.42;50.83
11648;BME280;5880;52.342;9.662;2023-02-10T08:06:40;102896.00;;;7.42;51.56
11648;BME280;5880;52.342;9.662;2023-02-10T08:09:07;102897.56;;;7.45;51.57
11648;BME280;5880;52.342;9.662;2023-02-10T08:11:33;102899.28;;;7.46;51.53
11648;BME280;5880;52.342;9.662;2023-02-10T08:14:01;102907.28;;;7.47;51.64
11648;BME280;5880;52.342;9.662;2023-02-10T08:16:27;102901.53;;;7.50;51.49
11648;BME280;5880;52.342;9.662;2023-02-10T08:18:52;102906.81;;;7.52;51.68
11648;BME280;5880;52.342;9.662;2023-02-10T08:21:18;102908.38;;;7.54;51.36
11648;BME280;5880;52.342;9.662;2023-02-10T08:23:44;102901.75;;;7.57;51.63
11648;BME280;5880;52.342;9.662;2023-02-10T08:26:12;102904.84;;;7.62;51.73
11648;BME280;5880;52.342;9.662;2023-02-10T08:28:39;102899.09;;;7.65;51.53
11648;BME280;5880;52.342;9.662;2023-02-10T08:31:08;102905.94;;;7.69;51.65
11648;BME280;5880;52.342;9.662;2023-02-10T08:33:35;102900.34;;;7.71;51.73
11648;BME280;5880;52.342;9.662;2023-02-10T08:36:08;102894.91;;;7.71;51.81
11648;BME280;5880;52.342;9.662;2023-02-10T08:38:34;102913.16;;;7.78;52.09
11648;BME280;5880;52.342;9.662;2023-02-10T08:41:00;102916.44;;;7.82;51.95
11648;BME280;5880;52.342;9.662;2023-02-10T08:43:26;102917.78;;;7.86;52.28
11648;BME280;5880;52.342;9.662;2023-02-10T08:45:59;102917.19;;;7.92;52.06
11648;BME280;5880;52.342;9.662;2023-02-10T08:48:25;102927.59;;;7.97;52.33
11648;BME280;5880;52.342;9.662;2023-02-10T08:50:51;102929.00;;;8.01;52.46
11648;BME280;5880;52.342;9.662;2023-02-10T08:53:19;102937.34;;;8.08;52.65
11648;BME280;5880;52.342;9.662;2023-02-10T08:55:59;102933.00;;;8.15;52.70
11648;BME280;5880;52.342;9.662;2023-02-10T08:58:25;102937.97;;;8.19;52.65
11648;BME280;5880;52.342;9.662;2023-02-10T09:00:51;102927.25;;;8.26;52.65
11648;BME280;5880;52.342;9.662;2023-02-10T09:03:17;102934.31;;;8.37;52.85
11648;BME280;5880;52.342;9.662;2023-02-10T09:05:43;102931.50;;;8.47;52.91
11648;BME280;5880;52.342;9.662;2023-02-10T09:08:14;102932.06;;;8.58;53.02
11648;BME280;5880;52.342;9.662;2023-02-10T09:10:40;102931.09;;;8.68;53.51
11648;BME280;5880;52.342;9.662;2023-02-10T09:13:06;102930.97;;;8.77;53.12
11648;BME280;5880;52.342;9.662;2023-02-10T09:15:37;102935.28;;;8.88;53.14
11648;BME280;5880;52.342;9.662;2023-02-10T09:18:03;102934.44;;;8.96;52.95
11648;BME280;5880;52.342;9.662;2023-02-10T09:20:28;102937.22;;;9.04;52.91
11648;BME280;5880;52.342;9.662;2023-02-10T09:22:54;102935.34;;;9.04;52.71
11648;BME280;5880;52.342;9.662;2023-02-10T09:25:20;102950.19;;;9.10;52.58
11648;BME280;5880;52.342;9.662;2023-02-10T09:27:45;102942.53;;;9.14;52.38
11648;BME280;5880;52.342;9.662;2023-02-10T09:30:11;102950.53;;;9.15;52.27
11648;BME280;5880;52.342;9.662;2023-02-10T09:32:37;102947.66;;;9.17;52.21
11648;BME280;5880;52.342;9.662;2023-02-10T09:35:03;102948.69;;;9.16;52.07
11648;BME280;5880;52.342;9.662;2023-02-10T09:37:28;102942.53;;;9.14;52.21
11648;BME280;5880;52.342;9.662;2023-02-10T09:39:54;102950.22;;;9.18;52.31
11648;BME280;5880;52.342;9.662;2023-02-10T09:42:45;102945.25;;;9.22;52.19
11648;BME280;5880;52.342;9.662;2023-02-10T09:45:26;102952.09;;;9.26;52.25
11648;BME280;5880;52.342;9.662;2023-02-10T09:51:23;102963.56;;;9.38;52.57
11648;BME280;5880;52.342;9.662;2023-02-10T09:53:55;102958.78;;;9.40;52.61
11648;BME280;5880;52.342;9.662;2023-02-10T09:56:22;102951.47;;;9.48;52.61
11648;BME280;5880;52.342;9.662;2023-02-10T09:58:56;102966.16;;;9.64;52.72
11648;BME280;5880;52.342;9.662;2023-02-10T10:01:48;102969.75;;;9.72;52.49
11648;BME280;5880;52.342;9.662;2023-02-10T10:04:20;102954.75;;;9.77;52.45
11648;BME280;5880;52.342;9.662;2023-02-10T10:07:36;102946.19;;;9.80;52.50
11648;BME280;5880;52.342;9.662;2023-02-10T10:09:59;102964.44;;;9.87;52.24
11648;BME280;5880;52.342;9.662;2023-02-10T10:12:26;102950.28;;;9.84;52.39
11648;BME280;5880;52.342;9.662;2023-02-10T10:14:53;102960.19;;;9.93;52.05
11648;BME280;5880;52.342;9.662;2023-02-10T10:20:48;102971.47;;;9.98;52.02
11648;BME280;5880;52.342;9.662;2023-02-10T10:24:03;102961.53;;;9.97;51.83
11648;BME280;5880;52.342;9.662;2023-02-10T10:26:15;102962.41;;;9.98;51.91
11648;BME280;5880;52.342;9.662;2023-02-10T10:34:58;102965.84;;;10.00;51.91
11648;BME280;5880;52.342;9.662;2023-02-10T10:37:25;102966.34;;;10.03;51.88
11648;BME280;5880;52.342;9.662;2023-02-10T10:40:00;102967.69;;;10.07;51.84
11648;BME280;5880;52.342;9.662;2023-02-10T10:42:44;102968.38;;;10.09;51.83
11648;BME280;5880;52.342;9.662;2023-02-10T10:45:28;102966.34;;;10.11;51.83
11648;BME280;5880;52.342;9.662;2023-02-10T10:48:20;102961.53;;;10.13;51.84
11648;BME280;5880;52.342;9.662;2023-02-10T10:50:59;102956.06;;;10.13;51.86
11648;BME280;5880;52.342;9.662;2023-02-10T10:53:50;102960.34;;;10.16;52.23
11648;BME280;5880;52.342;9.662;2023-02-10T10:56:54;102948.38;;;10.17;51.41
11648;BME280;5880;52.342;9.662;2023-02-10T10:59:38;102949.44;;;10.16;51.77
11648;BME280;5880;52.342;9.662;2023-02-10T11:02:20;102939.84;;;10.12;51.82
11648;BME280;5880;52.342;9.662;2023-02-10T11:05:11;102936.75;;;10.15;51.37
11648;BME280;5880;52.342;9.662;2023-02-10T11:07:40;102923.78;;;10.09;51.54
11648;BME280;5880;52.342;9.662;2023-02-10T11:10:46;102929.78;;;10.12;51.39
11648;BME280;5880;52.342;9.662;2023-02-10T11:13:26;102936.94;;;10.13;51.64
11648;BME280;5880;52.342;9.662;2023-02-10T11:16:08;102934.88;;;10.15;51.70
11648;BME280;5880;52.342;9.662;2023-02-10T11:18:36;102925.84;;;10.15;51.71
11648;BME280;5880;52.342;9.662;2023-02-10T11:21:08;102938.13;;;10.19;51.55
11648;BME280;5880;52.342;9.662;2023-02-10T11:23:53;102933.16;;;10.23;51.81
11648;BME280;5880;52.342;9.662;2023-02-10T11:26:25;102925.63;;;10.25;51.85
11648;BME280;5880;52.342;9.662;2023-02-10T11:28:53;102925.47;;;10.26;51.60
11648;BME280;5880;52.342;9.662;2023-02-10T11:34:12;102923.94;;;10.32;51.57
11648;BME280;5880;52.342;9.662;2023-02-10T11:36:42;102909.59;;;10.30;51.77
11648;BME280;5880;52.342;9.662;2023-02-10T11:39:28;102920.19;;;10.33;51.37
11648;BME280;5880;52.342;9.662;2023-02-10T11:41:55;102917.63;;;10.31;51.51
11648;BME280;5880;52.342;9.662;2023-02-10T11:44:31;102913.88;;;10.32;51.66
11648;BME280;5880;52.342;9.662;2023-02-10T11:47:13;102911.16;;;10.32;51.26
11648;BME280;5880;52.342;9.662;2023-02-10T11:49:45;102907.53;;;10.32;51.34
11648;BME280;5880;52.342;9.662;2023-02-10T11:52:12;102913.69;;;10.34;51.33
11648;BME280;5880;52.342;9.662;2023-02-10T11:54:38;102908.22;;;10.34;51.58
11648;BME280;5880;52.342;9.662;2023-02-10T11:57:52;102913.53;;;10.35;51.25
11648;BME280;5880;52.342;9.662;2023-02-10T12:01:19;102910.47;;;10.30;51.55
11648;BME280;5880;52.342;9.662;2023-02-10T12:04:10;102908.59;;;10.31;51.34
11648;BME280;5880;52.342;9.662;2023-02-10T12:07:06;102904.13;;;10.30;51.21
11648;BME280;5880;52.342;9.662;2023-02-10T12:21:46;102907.53;;;10.32;51.20
11648;BME280;5880;52.342;9.662;2023-02-10T12:24:49;102904.66;;;10.33;51.28
11648;BME280;5880;52.342;9.662;2023-02-10T12:30:31;102902.75;;;10.34;51.23
11648;BME280;5880;52.342;9.662;2023-02-10T12:36:21;102899.34;;;10.40;51.50
11648;BME280;5880;52.342;9.662;2023-02-10T12:39:28;102888.03;;;10.43;51.47
11648;BME280;5880;52.342;9.662;2023-02-10T12:43:06;102894.03;;;10.39;51.03
11648;BME280;5880;52.342;9.662;2023-02-10T12:45:49;102893.66;;;10.42;51.23
11648;BME280;5880;52.342;9.662;2023-02-10T12:51:43;102875.19;;;10.52;51.31
11648;BME280;5880;52.342;9.662;2023-02-10T12:58:16;102865.06;;;10.61;51.63
11648;BME280;5880;52.342;9.662;2023-02-10T13:01:05;102856.97;;;10.67;51.41
11648;BME280;5880;52.342;9.662;2023-02-10T13:03:37;102859.19;;;10.72;51.24
11648;BME280;5880;52.342;9.662;2023-02-10T13:06:37;102855.91;;;10.76;51.16
11648;BME280;5880;52.342;9.662;2023-02-10T13:09:15;102848.38;;;10.78;50.92
11648;BME280;5880;52.342;9.662;2023-02-10T13:14:54;102838.28;;;10.79;51.08
11648;BME280;5880;52.342;9.662;2023-02-10T13:17:26;102840.19;;;10.78;50.99
11648;BME280;5880;52.342;9.662;2023-02-10T13:20:06;102837.28;;;10.80;50.82
11648;BME280;5880;52.342;9.662;2023-02-10T13:23:24;102835.75;;;10.77;50.58
11648;BME280;5880;52.342;9.662;2023-02-10T13:26:13;102834.41;;;10.73;50.53
11648;BME280;5880;52.342;9.662;2023-02-10T13:32:06;102824.06;;;10.61;50.44
11648;BME280;5880;52.342;9.662;2023-02-10T13:34:44;102821.84;;;10.56;50.40
11648;BME280;5880;52.342;9.662;2023-02-10T13:37:21;102834.66;;;10.55;50.31
11648;BME280;5880;52.342;9.662;2023-02-10T13:40:05;102825.13;;;10.51;50.10
11648;BME280;5880;52.342;9.662;2023-02-10T13:42:46;102828.19;;;10.48;50.34
11648;BME280;5880;52.342;9.662;2023-02-10T13:53:28;102821.94;;;10.40;49.98
11648;BME280;5880;52.342;9.662;2023-02-10T13:56:13;102810.66;;;10.34;50.09
11648;BME280;5880;52.342;9.662;2023-02-10T13:59:03;102808.28;;;10.31;50.22
11648;BME280;5880;52.342;9.662;2023-02-10T14:01:38;102790.34;;;10.21;50.27
11648;BME280;5880;52.342;9.662;2023-02-10T14:06:52;102807.94;;;10.26;50.41
11648;BME280;5880;52.342;9.662;2023-02-10T14:12:01;102804.53;;;10.24;50.21
11648;BME280;5880;52.342;9.662;2023-02-10T14:14:34;102804.16;;;10.27;50.18
11648;BME280;5880;52.342;9.662;2023-02-10T14:19:42;102806.22;;;10.25;50.28
11648;BME280;5880;52.342;9.662;2023-02-10T14:22:34;102797.00;;;10.26;50.01
11648;BME280;5880;52.342;9.662;2023-02-10T14:25:16;102795.47;;;10.24;50.02
11648;BME280;5880;52.342;9.662;2023-02-10T14:27:52;102788.13;;;10.24;50.07
11648;BME280;5880;52.342;9.662;2023-02-10T14:33:01;102788.28;;;10.23;50.14
11648;BME280;5880;52.342;9.662;2023-02-10T14:35:27;102785.41;;;10.24;50.06
11648;BME280;5880;52.342;9.662;2023-02-10T14:37:57;102785.41;;;10.24;50.08
11648;BME280;5880;52.342;9.662;2023-02-10T14:40:26;102785.41;;;10.24;49.99
11648;BME280;5880;52.342;9.662;2023-02-10T14:42:52;102774.63;;;10.23;49.96
11648;BME280;5880;52.342;9.662;2023-02-10T14:45:23;102771.72;;;10.24;50.09